Time;durP1;ratioP1;P1;durP2;ratioP2;P2;SDS_P1;SDS_P2;PMS_P1;PMS_P2;Temp;Humidity;BMP_temperature;BMP_pressure;BME280_temperature;BME280_humidity;BME280_pressure;Samples;Min_cycle;Max_cycle;Signal;HPM_P1;HPM_P2
2022/11/18 00:00:04;;;;;;;9.27;6.85;;;8.40;99.90;;;;;;4982982;28;20042;-75
2022/11/18 00:02:30;;;;;;;6.97;5.80;;;8.40;99.90;;;;;;4983954;28;20053;-75
2022/11/18 00:04:55;;;;;;;7.75;6.10;;;8.30;99.90;;;;;;4984584;28;20121;-76
2022/11/18 00:07:21;;;;;;;7.38;5.53;;;8.30;99.90;;;;;;4983114;28;20109;-75
2022/11/18 00:09:46;;;;;;;9.75;6.28;;;8.30;99.90;;;;;;4966148;28;20042;-76
2022/11/18 00:14:56;;;;;;;9.00;6.45;;;8.20;99.90;;;;;;4984794;28;20145;-76
2022/11/18 00:17:22;;;;;;;9.15;6.18;;;8.20;99.90;;;;;;4984291;28;20185;-76
2022/11/18 00:19:48;;;;;;;10.05;6.32;;;8.20;99.90;;;;;;4984806;28;20173;-75
2022/11/18 00:22:13;;;;;;;8.95;6.13;;;8.20;99.90;;;;;;4984250;28;20595;-76
2022/11/18 00:24:39;;;;;;;14.07;7.13;;;8.20;99.90;;;;;;4983789;28;20041;-76
2022/11/18 00:27:04;;;;;;;8.45;7.40;;;8.10;99.90;;;;;;4979828;28;20486;-76
2022/11/18 00:29:30;;;;;;;11.90;6.82;;;8.10;99.90;;;;;;4963964;28;20035;-75
2022/11/18 00:31:57;;;;;;;9.55;6.35;;;8.10;99.90;;;;;;4965894;28;20046;-76
2022/11/18 00:34:23;;;;;;;9.15;6.35;;;8.10;99.90;;;;;;4965659;28;20039;-76
2022/11/18 00:36:49;;;;;;;10.10;7.07;;;8.10;99.90;;;;;;4951023;28;20171;-76
2022/11/18 00:39:18;;;;;;;9.60;6.57;;;8.10;99.90;;;;;;4966514;28;20129;-75
2022/11/18 00:44:28;;;;;;;11.65;8.32;;;8.10;99.90;;;;;;4967643;28;20954;-76
2022/11/18 00:46:53;;;;;;;10.52;8.13;;;8.10;99.90;;;;;;4967239;28;20062;-75
2022/11/18 00:49:19;;;;;;;11.65;8.38;;;8.00;99.90;;;;;;4968150;28;20494;-76
2022/11/18 00:51:44;;;;;;;9.25;7.57;;;8.00;99.90;;;;;;4968586;28;20054;-75
2022/11/18 00:54:11;;;;;;;10.48;7.68;;;8.00;99.90;;;;;;4967933;28;20043;-74
2022/11/18 00:56:36;;;;;;;12.48;8.18;;;8.00;99.90;;;;;;4968871;28;20055;-75
2022/11/18 00:59:02;;;;;;;13.32;8.13;;;7.90;99.90;;;;;;4951375;28;20386;-76
2022/11/18 01:01:28;;;;;;;11.63;8.40;;;7.90;99.90;;;;;;4968613;28;20050;-77
2022/11/18 01:03:53;;;;;;;11.18;7.82;;;7.90;99.90;;;;;;4968689;28;20054;-75
2022/11/18 01:06:19;;;;;;;10.18;7.50;;;7.90;99.90;;;;;;4967746;28;20065;-75
2022/11/18 01:08:45;;;;;;;11.63;7.97;;;7.90;99.90;;;;;;4965592;28;20090;-75
2022/11/18 01:13:54;;;;;;;12.55;8.70;;;7.80;99.90;;;;;;4966886;28;20047;-77
2022/11/18 01:16:23;;;;;;;14.80;9.30;;;7.80;99.90;;;;;;4966141;28;20387;-76
2022/11/18 01:18:48;;;;;;;13.60;8.25;;;7.80;99.90;;;;;;4967417;28;20043;-76
2022/11/18 01:21:14;;;;;;;13.98;9.45;;;7.80;99.90;;;;;;4967820;28;20074;-75
2022/11/18 01:23:40;;;;;;;13.95;9.05;;;7.80;99.90;;;;;;4965288;28;20129;-76
2022/11/18 01:26:10;;;;;;;11.27;7.90;;;7.80;99.90;;;;;;4976310;28;20531;-75
2022/11/18 01:28:35;;;;;;;11.93;9.15;;;7.70;99.90;;;;;;4985056;28;20050;-75
2022/11/18 01:31:06;;;;;;;14.85;10.35;;;7.70;99.90;;;;;;4986840;28;20789;-75
2022/11/18 01:33:32;;;;;;;19.40;11.93;;;7.70;99.90;;;;;;4986780;28;20053;-76
2022/11/18 01:35:58;;;;;;;14.27;10.80;;;7.70;99.90;;;;;;4987386;28;20042;-77
2022/11/18 01:38:23;;;;;;;16.67;12.73;;;7.70;99.90;;;;;;4985810;28;20049;-74
2022/11/18 01:40:49;;;;;;;18.65;11.85;;;7.70;99.90;;;;;;4985148;28;20364;-75
2022/11/18 01:43:18;;;;;;;19.27;13.10;;;7.70;99.90;;;;;;4986530;28;20296;-75
2022/11/18 01:45:46;;;;;;;14.45;10.48;;;7.70;99.90;;;;;;4984618;28;20077;-76
2022/11/18 01:48:27;;;;;;;17.13;12.60;;;7.70;99.90;;;;;;4986754;28;20133;-74
2022/11/18 01:51:00;;;;;;;16.95;10.43;;;7.70;99.90;;;;;;4986270;28;20628;-76
2022/11/18 01:53:31;;;;;;;16.13;11.48;;;7.70;99.90;;;;;;4985413;28;20044;-75
2022/11/18 01:56:01;;;;;;;19.63;13.68;;;7.70;99.90;;;;;;4985877;28;20125;-76
2022/11/18 01:58:33;;;;;;;20.08;12.50;;;7.80;99.90;;;;;;4986575;28;20092;-75
2022/11/18 02:00:59;;;;;;;20.00;13.90;;;7.80;99.90;;;;;;4969282;28;20046;-77
2022/11/18 02:03:26;;;;;;;25.52;14.77;;;7.80;99.90;;;;;;4986604;28;20444;-75
2022/11/18 02:05:52;;;;;;;19.63;13.05;;;7.80;99.90;;;;;;4984618;28;20528;-76
2022/11/18 02:08:19;;;;;;;22.27;13.45;;;7.80;99.90;;;;;;5083720;22;20728;-80
2022/11/18 02:10:45;;;;;;;25.20;14.23;;;7.70;99.90;;;;;;5003698;28;20507;-80
2022/11/18 02:13:11;;;;;;;22.08;14.52;;;7.80;99.90;;;;;;5003356;28;20030;-80
2022/11/18 02:16:01;;;;;;;24.40;14.75;;;7.80;99.90;;;;;;5003518;28;20108;-80
2022/11/18 02:18:51;;;;;;;20.23;14.35;;;7.80;99.90;;;;;;5003736;28;20049;-80
2022/11/18 02:21:28;;;;;;;19.67;13.48;;;7.80;99.90;;;;;;5007694;28;20060;-80
2022/11/18 02:23:56;;;;;;;20.10;15.07;;;7.90;99.90;;;;;;5024045;28;20048;-80
2022/11/18 02:26:53;;;;;;;21.95;13.70;;;7.90;99.90;;;;;;4995327;28;20454;-80
2022/11/18 02:30:07;;;;;;;24.02;12.88;;;7.90;99.90;;;;;;5004218;28;20056;-80
2022/11/18 02:33:08;;;;;;;18.52;13.55;;;7.90;99.90;;;;;;4999329;28;20053;-80
2022/11/18 02:35:48;;;;;;;23.17;16.08;;;7.90;99.90;;;;;;5003125;28;20068;-80
2022/11/18 02:38:29;;;;;;;22.70;14.23;;;7.90;99.90;;;;;;5004356;28;20050;-80
2022/11/18 02:41:00;;;;;;;22.35;15.50;;;7.90;99.90;;;;;;5003539;28;20107;-80
2022/11/18 02:43:37;;;;;;;24.00;14.30;;;7.90;99.90;;;;;;5002862;28;20072;-80
2022/11/18 02:46:07;;;;;;;22.20;15.70;;;7.90;99.90;;;;;;5003164;28;20355;-80
2022/11/18 02:48:39;;;;;;;31.58;16.73;;;7.90;99.90;;;;;;5003777;28;20037;-80
2022/11/18 02:51:06;;;;;;;22.33;15.57;;;8.00;99.90;;;;;;5005273;28;20077;-80
2022/11/18 02:53:35;;;;;;;33.50;16.75;;;8.00;99.90;;;;;;5023567;28;20119;-80
2022/11/18 02:56:02;;;;;;;27.17;15.98;;;8.00;99.90;;;;;;5022940;28;20052;-80
2022/11/18 02:58:27;;;;;;;20.38;15.88;;;8.00;99.90;;;;;;5023156;28;20037;-80
2022/11/18 03:00:55;;;;;;;28.25;18.08;;;8.00;99.90;;;;;;5022491;28;20122;-80
2022/11/18 03:03:33;;;;;;;33.15;16.15;;;8.00;99.90;;;;;;5005414;28;20121;-79
2022/11/18 03:06:23;;;;;;;29.70;17.40;;;8.00;99.90;;;;;;5023078;28;20168;-80
2022/11/18 03:09:03;;;;;;;28.95;15.25;;;8.00;99.90;;;;;;5021322;28;20064;-80
2022/11/18 03:11:36;;;;;;;29.83;16.85;;;8.00;99.90;;;;;;5022885;28;20554;-80
2022/11/18 03:14:23;;;;;;;26.33;16.63;;;8.00;99.90;;;;;;5023128;28;20060;-80
2022/11/18 03:17:12;;;;;;;23.40;15.30;;;8.00;99.90;;;;;;5021932;28;20065;-80
2022/11/18 03:20:06;;;;;;;27.85;14.90;;;8.00;99.90;;;;;;5023511;28;20042;-80
2022/11/18 03:22:41;;;;;;;52.83;18.95;;;8.00;99.90;;;;;;5022196;28;20053;-80
2022/11/18 03:25:12;;;;;;;27.13;16.67;;;8.00;99.90;;;;;;5020417;28;20083;-80
2022/11/18 03:27:47;;;;;;;26.50;17.38;;;8.00;99.90;;;;;;5002150;28;20087;-80
2022/11/18 03:30:19;;;;;;;26.30;18.08;;;8.00;99.90;;;;;;5002777;28;20042;-80
2022/11/18 03:32:59;;;;;;;28.67;16.45;;;8.00;99.90;;;;;;5003525;28;20381;-80
2022/11/18 03:35:27;;;;;;;28.40;17.98;;;8.00;99.90;;;;;;5002749;28;20108;-80
2022/11/18 03:38:00;;;;;;;29.38;17.77;;;8.00;99.90;;;;;;5003507;28;20042;-79
2022/11/18 03:40:28;;;;;;;;;;;8.10;99.90;;;;;;5003488;28;20496;-80
2022/11/18 03:43:01;;;;;;;37.17;16.73;;;8.10;99.90;;;;;;4985861;28;19928;-80
2022/11/18 03:45:41;;;;;;;34.10;17.98;;;8.10;99.90;;;;;;5003706;28;20117;-80
2022/11/18 03:48:10;;;;;;;35.20;18.52;;;8.10;99.90;;;;;;5002206;28;20444;-80
2022/11/18 03:50:41;;;;;;;26.70;16.98;;;8.10;99.90;;;;;;5003556;28;20085;-80
2022/11/18 03:53:08;;;;;;;31.42;16.98;;;8.10;99.90;;;;;;5021288;28;20391;-80
2022/11/18 03:55:39;;;;;;;37.40;20.83;;;8.10;99.90;;;;;;5022730;28;20125;-80
2022/11/18 03:58:30;;;;;;;33.70;15.77;;;8.10;99.90;;;;;;5021691;28;20057;-80
2022/11/18 04:01:05;;;;;;;31.65;17.65;;;8.10;99.90;;;;;;5021975;28;20409;-80
2022/11/18 04:03:30;;;;;;;34.83;19.05;;;8.10;99.90;;;;;;5022253;28;20384;-80
2022/11/18 04:06:08;;;;;;;38.00;18.65;;;8.10;99.90;;;;;;5023451;28;20048;-80
2022/11/18 04:08:37;;;;;;;27.58;18.63;;;8.10;99.90;;;;;;5023795;28;20272;-80
2022/11/18 04:14:12;;;;;;;29.63;16.02;;;8.10;99.90;;;;;;5025340;28;20053;-80
2022/11/18 04:16:42;;;;;;;24.08;14.75;;;8.10;99.90;;;;;;5025222;28;20072;-80
2022/11/18 04:19:08;;;;;;;29.65;17.50;;;8.10;99.90;;;;;;5026792;28;20440;-80
2022/11/18 04:21:34;;;;;;;31.13;18.83;;;8.10;99.90;;;;;;5027152;28;20084;-80
2022/11/18 04:24:00;;;;;;;27.90;16.65;;;8.10;99.90;;;;;;5024288;28;20041;-80
2022/11/18 04:26:25;;;;;;;29.88;16.27;;;8.10;99.90;;;;;;5013706;28;20072;-80
2022/11/18 04:28:51;;;;;;;29.88;18.13;;;8.10;99.90;;;;;;5005406;28;20100;-80
2022/11/18 04:31:16;;;;;;;23.75;15.07;;;8.10;99.90;;;;;;5006933;28;20117;-80
2022/11/18 04:33:42;;;;;;;23.95;14.93;;;8.10;99.90;;;;;;5005466;28;20115;-80
2022/11/18 04:36:08;;;;;;;22.77;15.10;;;8.10;99.90;;;;;;5005199;28;20424;-80
2022/11/18 04:38:33;;;;;;;25.52;17.05;;;8.10;99.90;;;;;;5005290;28;20034;-79
2022/11/18 04:40:59;;;;;;;22.98;15.15;;;8.10;99.90;;;;;;5005873;28;20046;-80
2022/11/18 04:43:24;;;;;;;26.25;15.60;;;8.10;99.90;;;;;;4988882;28;20691;-80
2022/11/18 04:45:50;;;;;;;24.02;15.00;;;8.10;99.90;;;;;;5006627;28;20416;-80
2022/11/18 04:48:15;;;;;;;30.08;17.30;;;8.10;99.90;;;;;;5004777;28;20444;-80
2022/11/18 04:50:41;;;;;;;26.92;16.63;;;8.10;99.90;;;;;;5005046;28;20064;-80
2022/11/18 04:53:06;;;;;;;29.83;16.10;;;8.10;99.90;;;;;;5024256;28;20049;-80
2022/11/18 04:55:35;;;;;;;27.42;15.55;;;8.10;99.90;;;;;;5024859;28;20037;-80
2022/11/18 04:58:01;;;;;;;22.98;13.93;;;8.10;99.90;;;;;;5026141;28;20091;-80
2022/11/18 05:00:26;;;;;;;18.05;13.88;;;8.00;99.90;;;;;;5024815;28;20049;-79
2022/11/18 05:02:52;;;;;;;25.98;16.33;;;8.00;99.90;;;;;;5025796;28;20034;-80
2022/11/18 05:05:17;;;;;;;23.30;15.32;;;8.10;99.90;;;;;;5024711;28;20099;-80
2022/11/18 05:07:43;;;;;;;27.40;15.57;;;8.00;99.90;;;;;;5023713;28;20444;-80
2022/11/18 05:10:09;;;;;;;21.70;14.23;;;8.00;99.90;;;;;;5024811;28;20041;-80
2022/11/18 05:12:51;;;;;;;22.95;14.13;;;8.00;99.90;;;;;;5026216;28;20045;-80
2022/11/18 05:15:18;;;;;;;28.08;14.55;;;8.00;99.90;;;;;;5025859;28;20116;-80
2022/11/18 05:17:44;;;;;;;20.70;14.40;;;8.00;99.90;;;;;;5025299;28;20041;-80
2022/11/18 05:20:10;;;;;;;23.30;15.50;;;8.00;99.90;;;;;;5023193;28;20075;-80
2022/11/18 05:22:36;;;;;;;24.35;15.45;;;8.00;99.90;;;;;;5024585;28;20049;-80
2022/11/18 05:25:02;;;;;;;24.00;13.38;;;8.00;99.90;;;;;;5024451;28;20571;-80
2022/11/18 05:27:28;;;;;;;24.33;15.00;;;8.00;99.90;;;;;;5005632;28;20054;-80
2022/11/18 05:29:53;;;;;;;22.48;15.95;;;8.00;99.90;;;;;;5006078;28;20045;-80
2022/11/18 05:32:19;;;;;;;23.20;16.90;;;8.00;99.90;;;;;;5004363;28;20050;-80
2022/11/18 05:34:44;;;;;;;26.50;16.23;;;8.00;99.90;;;;;;4988464;28;20053;-79
2022/11/18 05:37:10;;;;;;;21.42;14.27;;;8.00;99.90;;;;;;5004511;28;20042;-80
2022/11/18 05:39:36;;;;;;;22.67;16.88;;;8.00;99.90;;;;;;5005089;28;20050;-80
2022/11/18 05:44:46;;;;;;;21.98;15.10;;;8.00;99.90;;;;;;5005157;28;20415;-80
2022/11/18 05:47:12;;;;;;;24.45;15.60;;;8.00;99.90;;;;;;5004059;28;20042;-79
2022/11/18 05:49:37;;;;;;;22.48;12.93;;;8.00;99.90;;;;;;5005840;28;20066;-80
2022/11/18 05:52:03;;;;;;;20.45;14.88;;;8.00;99.90;;;;;;5005170;28;20038;-80
2022/11/18 05:54:29;;;;;;;32.25;17.13;;;8.00;99.90;;;;;;5004240;28;20104;-80
2022/11/18 05:56:54;;;;;;;21.40;15.13;;;8.00;99.90;;;;;;5003963;28;20054;-80
2022/11/18 05:59:20;;;;;;;20.60;14.05;;;7.90;99.90;;;;;;5005217;28;20046;-80
2022/11/18 06:01:55;;;;;;;27.23;16.00;;;7.90;99.90;;;;;;5003424;28;20076;-80
2022/11/18 06:05:01;;;;;;;26.75;17.02;;;7.90;99.90;;;;;;5004142;28;20451;-80
2022/11/18 06:07:38;;;;;;;23.00;15.23;;;7.90;99.90;;;;;;4951363;28;20177;-80
2022/11/18 06:10:04;;;;;;;21.92;13.90;;;7.90;99.90;;;;;;4968689;28;20727;-80
2022/11/18 06:12:35;;;;;;;24.67;14.50;;;7.90;99.90;;;;;;4960518;28;20088;-78
2022/11/18 06:15:08;;;;;;;20.73;15.07;;;7.90;99.90;;;;;;5005266;28;20053;-80
2022/11/18 06:17:45;;;;;;;34.13;16.88;;;7.90;99.90;;;;;;4995342;28;20562;-81
2022/11/18 06:20:11;;;;;;;23.08;15.32;;;7.90;99.90;;;;;;5003807;28;20054;-81
2022/11/18 06:22:37;;;;;;;25.45;14.75;;;7.90;99.90;;;;;;5005190;28;20126;-81
2022/11/18 06:25:03;;;;;;;21.88;14.25;;;8.00;99.90;;;;;;5014361;28;20045;-81
2022/11/18 06:27:29;;;;;;;21.15;13.02;;;7.90;99.90;;;;;;5003570;28;20073;-84
2022/11/18 06:29:55;;;;;;;24.65;13.75;;;7.90;99.90;;;;;;5003342;28;20058;-80
2022/11/18 06:32:21;;;;;;;22.17;14.35;;;7.90;99.90;;;;;;5015795;28;20491;-79
2022/11/18 06:34:46;;;;;;;28.25;15.25;;;7.90;99.90;;;;;;4995611;28;20037;-80
2022/11/18 06:37:17;;;;;;;24.38;13.88;;;7.90;99.90;;;;;;5003679;28;20678;-81
2022/11/18 06:39:43;;;;;;;22.17;12.30;;;7.90;99.90;;;;;;5023112;28;20161;-81
2022/11/18 06:42:08;;;;;;;20.73;13.52;;;7.90;99.90;;;;;;5022748;28;20537;-81
2022/11/18 06:44:34;;;;;;;23.98;15.25;;;7.90;99.90;;;;;;5022381;28;20380;-81
2022/11/18 06:47:01;;;;;;;14.88;12.48;;;7.90;99.90;;;;;;5022261;28;21025;-80
2022/11/18 06:49:27;;;;;;;22.38;14.68;;;7.90;99.90;;;;;;5023046;28;20144;-83
2022/11/18 06:51:53;;;;;;;21.85;11.75;;;7.90;99.90;;;;;;5022634;28;20053;-81
2022/11/18 06:54:19;;;;;;;24.45;11.98;;;7.90;99.90;;;;;;5023443;28;20059;-82
2022/11/18 06:56:44;;;;;;;19.80;13.65;;;7.90;99.90;;;;;;5013103;28;20470;-81
2022/11/18 06:59:10;;;;;;;23.45;14.15;;;7.90;99.90;;;;;;5004283;28;20042;-80
2022/11/18 07:01:38;;;;;;;24.20;13.43;;;7.90;99.90;;;;;;5020027;28;20034;-83
2022/11/18 07:04:04;;;;;;;21.05;11.95;;;7.90;99.90;;;;;;5022395;28;20123;-81
2022/11/18 07:06:32;;;;;;;19.88;14.30;;;7.90;99.90;;;;;;5023727;28;20611;-82
2022/11/18 07:09:02;;;;;;;21.58;11.90;;;7.90;99.90;;;;;;5014610;28;20046;-81
2022/11/18 07:11:28;;;;;;;22.33;14.40;;;7.90;99.90;;;;;;5003145;28;20037;-83
2022/11/18 07:13:55;;;;;;;20.35;13.15;;;7.90;99.90;;;;;;5001173;28;20611;-81
2022/11/18 07:16:23;;;;;;;18.88;12.52;;;7.90;99.90;;;;;;4984218;28;20042;-82
2022/11/18 07:18:50;;;;;;;18.98;11.70;;;7.90;99.90;;;;;;4990032;28;20073;-79
2022/11/18 07:21:21;;;;;;;21.08;12.25;;;7.90;99.90;;;;;;4986222;28;20050;-79
2022/11/18 07:23:47;;;;;;;22.08;15.07;;;7.90;99.90;;;;;;5001690;28;20393;-82
2022/11/18 07:26:13;;;;;;;19.38;13.50;;;7.90;99.90;;;;;;4985998;28;20064;-82
2022/11/18 07:28:39;;;;;;;21.33;13.13;;;7.90;99.90;;;;;;4985997;28;20053;-80
2022/11/18 07:31:15;;;;;;;16.38;12.68;;;7.90;99.90;;;;;;5002715;28;20125;-82
2022/11/18 07:33:42;;;;;;;21.55;12.40;;;7.90;99.90;;;;;;5002434;28;20112;-81
2022/11/18 07:36:10;;;;;;;22.13;11.88;;;7.90;99.90;;;;;;5002311;28;20245;-81
2022/11/18 07:38:36;;;;;;;21.35;12.15;;;7.90;99.90;;;;;;5002608;28;20046;-81
2022/11/18 07:41:10;;;;;;;23.73;13.73;;;7.90;99.90;;;;;;5003247;28;20050;-80
2022/11/18 07:43:36;;;;;;;22.45;14.13;;;7.90;99.90;;;;;;5003682;28;20030;-78
2022/11/18 07:46:14;;;;;;;18.63;11.95;;;7.90;99.90;;;;;;5007790;28;20046;-83
2022/11/18 07:48:42;;;;;;;24.38;14.20;;;7.90;99.90;;;;;;4989956;28;20042;-83
2022/11/18 07:51:08;;;;;;;41.10;12.80;;;7.90;99.90;;;;;;4989614;28;20072;-80
2022/11/18 07:53:34;;;;;;;22.98;14.05;;;7.90;99.90;;;;;;5005653;28;20591;-83
2022/11/18 07:56:00;;;;;;;19.73;13.23;;;7.90;99.90;;;;;;5003580;28;20043;-82
2022/11/18 07:58:26;;;;;;;20.02;12.13;;;7.90;99.90;;;;;;5004900;28;20042;-84
2022/11/18 08:00:51;;;;;;;26.02;12.73;;;7.90;99.90;;;;;;5007411;28;20038;-79
2022/11/18 08:03:17;;;;;;;19.45;12.70;;;7.80;99.90;;;;;;5007687;28;20041;-80
2022/11/18 08:05:42;;;;;;;23.02;15.00;;;7.90;99.90;;;;;;5009643;28;20374;-82
2022/11/18 08:08:09;;;;;;;17.15;12.52;;;7.90;99.90;;;;;;5013154;28;20065;-81
2022/11/18 08:10:35;;;;;;;19.75;12.98;;;7.90;99.90;;;;;;5006606;28;20103;-82
2022/11/18 08:13:01;;;;;;;19.10;13.07;;;7.90;99.90;;;;;;5006099;28;20053;-81
2022/11/18 08:15:26;;;;;;;23.05;15.18;;;7.90;99.90;;;;;;5008308;28;20037;-83
2022/11/18 08:17:52;;;;;;;23.00;13.18;;;7.90;99.90;;;;;;5006521;28;20111;-81
2022/11/18 08:20:17;;;;;;;17.80;11.43;;;7.90;99.90;;;;;;5011743;28;20100;-80
2022/11/18 08:22:43;;;;;;;25.50;13.32;;;7.90;99.90;;;;;;5014148;28;20121;-81
2022/11/18 08:25:09;;;;;;;25.27;14.73;;;7.80;99.90;;;;;;5006715;28;20100;-81
2022/11/18 08:27:34;;;;;;;16.80;12.45;;;7.90;99.90;;;;;;5005182;28;20045;-80
2022/11/18 08:30:00;;;;;;;20.50;13.98;;;7.80;99.90;;;;;;5014031;28;20668;-81
2022/11/18 08:32:25;;;;;;;24.35;13.85;;;7.80;99.90;;;;;;5005882;28;20082;-80
2022/11/18 08:34:51;;;;;;;26.08;11.23;;;7.80;99.90;;;;;;5002741;28;20614;-78
2022/11/18 08:37:17;;;;;;;28.42;13.43;;;7.80;99.90;;;;;;5004019;28;20411;-81
2022/11/18 08:39:42;;;;;;;23.98;13.90;;;7.80;99.90;;;;;;5003003;28;20092;-81
2022/11/18 08:42:09;;;;;;;21.67;11.65;;;7.80;99.90;;;;;;5005580;28;20487;-81
2022/11/18 08:44:35;;;;;;;23.83;14.00;;;7.80;99.90;;;;;;5006402;28;20049;-81
2022/11/18 08:47:00;;;;;;;26.02;15.40;;;7.80;99.90;;;;;;5003465;28;20101;-81
2022/11/18 08:49:26;;;;;;;29.35;13.80;;;7.80;99.90;;;;;;5006028;28;20082;-81
2022/11/18 08:51:52;;;;;;;25.77;15.85;;;7.80;99.90;;;;;;5003351;28;20293;-78
2022/11/18 08:54:17;;;;;;;21.75;13.38;;;7.80;99.90;;;;;;4999449;28;20739;-81
2022/11/18 08:56:43;;;;;;;20.13;14.18;;;7.80;99.90;;;;;;5004893;28;20041;-80
2022/11/18 08:59:08;;;;;;;25.00;16.10;;;7.80;99.90;;;;;;5003834;28;21313;-79
2022/11/18 09:01:40;;;;;;;22.23;15.48;;;7.80;99.90;;;;;;5009157;28;20045;-82
2022/11/18 09:04:06;;;;;;;29.70;14.70;;;7.80;99.90;;;;;;5005909;28;20071;-80
2022/11/18 09:06:33;;;;;;;22.75;13.40;;;7.80;99.90;;;;;;5003942;28;20288;-78
2022/11/18 09:08:59;;;;;;;24.90;13.40;;;7.80;99.90;;;;;;5002518;28;20060;-79
2022/11/18 09:11:26;;;;;;;24.02;12.05;;;7.80;99.90;;;;;;5001764;28;20128;-79
2022/11/18 09:13:57;;;;;;;24.00;13.13;;;7.80;99.90;;;;;;5021896;28;20045;-81
2022/11/18 09:16:24;;;;;;;24.88;12.52;;;7.80;99.90;;;;;;4990953;28;20037;-81
2022/11/18 09:18:50;;;;;;;22.23;12.57;;;7.70;99.90;;;;;;5005301;28;20049;-80
2022/11/18 09:21:16;;;;;;;18.80;12.70;;;7.80;99.90;;;;;;5004004;28;20049;-82
2022/11/18 09:23:42;;;;;;;15.82;11.43;;;7.80;99.90;;;;;;4986781;28;20057;-81
2022/11/18 09:26:10;;;;;;;19.08;10.85;;;7.80;99.90;;;;;;4995990;28;20104;-81
2022/11/18 09:28:36;;;;;;;20.48;11.30;;;7.80;99.90;;;;;;5005050;28;21270;-79
2022/11/18 09:31:07;;;;;;;20.42;12.05;;;7.80;99.90;;;;;;5004468;28;20132;-79
2022/11/18 09:33:33;;;;;;;21.58;12.10;;;7.80;99.90;;;;;;5003885;28;20470;-81
2022/11/18 09:35:59;;;;;;;13.05;9.52;;;7.80;99.90;;;;;;4978323;28;20039;-80
2022/11/18 09:38:24;;;;;;;28.38;12.00;;;7.80;99.90;;;;;;4999628;28;20112;-80
2022/11/18 09:41:05;;;;;;;18.90;9.73;;;7.80;99.90;;;;;;4986264;28;20049;-79
2022/11/18 09:43:56;;;;;;;23.10;12.32;;;7.80;99.90;;;;;;5006718;28;20495;-79
2022/11/18 09:46:49;;;;;;;14.98;9.63;;;7.80;99.90;;;;;;4987949;28;20049;-79
2022/11/18 09:49:25;;;;;;;15.57;9.40;;;7.80;99.90;;;;;;5004501;28;20488;-79
2022/11/18 09:51:52;;;;;;;14.63;11.43;;;7.80;99.90;;;;;;5003946;28;20089;-80
2022/11/18 09:54:23;;;;;;;18.83;10.98;;;7.80;99.90;;;;;;5003626;28;20050;-79
2022/11/18 09:56:51;;;;;;;16.73;8.77;;;7.90;99.90;;;;;;5004056;28;20561;-79
2022/11/18 09:59:20;;;;;;;11.82;8.82;;;7.90;99.90;;;;;;5009493;28;20399;-79
2022/11/18 10:01:47;;;;;;;13.57;8.30;;;7.80;99.90;;;;;;5003343;28;20117;-79
2022/11/18 10:04:18;;;;;;;14.00;9.32;;;7.80;99.90;;;;;;5006841;28;20057;-79
2022/11/18 10:06:45;;;;;;;13.65;9.23;;;7.90;99.90;;;;;;4987760;28;20046;-80
2022/11/18 10:09:33;;;;;;;19.38;9.85;;;7.80;99.90;;;;;;5003489;28;20053;-80
2022/11/18 10:12:21;;;;;;;14.90;8.77;;;7.80;99.90;;;;;;5005197;28;20034;-80
2022/11/18 10:14:58;;;;;;;10.98;7.35;;;7.90;99.90;;;;;;5005261;28;20605;-81
2022/11/18 10:17:50;;;;;;;11.63;9.48;;;7.90;99.90;;;;;;4987000;28;20037;-78
2022/11/18 10:20:54;;;;;;;14.85;7.30;;;7.90;99.90;;;;;;4988139;28;20053;-79
2022/11/18 10:23:27;;;;;;;12.98;9.20;;;7.90;99.90;;;;;;5023645;28;20187;-79
2022/11/18 10:25:53;;;;;;;13.85;6.93;;;7.90;99.90;;;;;;5002235;28;20042;-79
2022/11/18 10:28:22;;;;;;;16.98;10.70;;;7.90;99.90;;;;;;4974721;28;20056;-78
2022/11/18 10:30:48;;;;;;;17.10;10.48;;;7.90;99.90;;;;;;4995050;28;20753;-79
2022/11/18 10:33:22;;;;;;;15.43;11.15;;;7.90;99.90;;;;;;5004321;28;20037;-79
2022/11/18 10:35:48;;;;;;;13.95;8.68;;;7.90;99.90;;;;;;5003180;28;20056;-79
2022/11/18 10:38:14;;;;;;;16.00;8.20;;;7.90;99.90;;;;;;5004931;28;20046;-79
2022/11/18 10:41:03;;;;;;;18.75;8.23;;;7.90;99.90;;;;;;5004697;28;20121;-79
2022/11/18 10:43:43;;;;;;;19.02;8.50;;;7.90;99.90;;;;;;5004624;28;20050;-79
2022/11/18 10:46:21;;;;;;;10.10;6.95;;;7.90;99.90;;;;;;4999385;28;20044;-79
2022/11/18 10:48:47;;;;;;;18.30;8.38;;;7.90;99.90;;;;;;5003981;28;20046;-81
2022/11/18 10:51:23;;;;;;;7.90;6.35;;;7.90;99.90;;;;;;5005580;28;20057;-79
2022/11/18 10:53:49;;;;;;;18.02;7.47;;;7.90;99.90;;;;;;5003271;28;20041;-79
2022/11/18 10:56:15;;;;;;;28.83;8.68;;;7.90;99.90;;;;;;5005560;28;20038;-80
2022/11/18 10:58:45;;;;;;;13.80;8.43;;;7.90;99.90;;;;;;4987099;28;20527;-81
2022/11/18 11:01:23;;;;;;;15.85;9.55;;;7.90;99.90;;;;;;5003739;28;20177;-80
2022/11/18 11:04:01;;;;;;;16.15;7.82;;;7.90;99.90;;;;;;5002704;28;20123;-80
2022/11/18 11:06:31;;;;;;;13.43;7.60;;;7.90;99.90;;;;;;5001013;28;20148;-79
2022/11/18 11:09:04;;;;;;;13.32;8.68;;;7.90;99.90;;;;;;5002012;28;20129;-79
2022/11/18 11:11:42;;;;;;;14.50;6.97;;;8.00;99.90;;;;;;5003768;28;20038;-80
2022/11/18 11:14:45;;;;;;;11.35;7.47;;;7.90;99.90;;;;;;5013788;28;20076;-79
2022/11/18 11:17:20;;;;;;;12.98;7.68;;;7.90;99.90;;;;;;5019573;28;20041;-79
2022/11/18 11:20:09;;;;;;;11.88;7.45;;;7.90;99.90;;;;;;5003264;28;20049;-80
2022/11/18 11:22:34;;;;;;;13.55;7.65;;;7.90;99.90;;;;;;4982241;28;20038;-78
2022/11/18 11:25:00;;;;;;;13.05;8.02;;;7.90;99.90;;;;;;4997640;28;20455;-77
2022/11/18 11:28:02;;;;;;;13.02;7.78;;;7.90;99.90;;;;;;5002892;28;20046;-78
2022/11/18 11:30:34;;;;;;;10.07;7.38;;;7.90;99.90;;;;;;4975882;28;20111;-78
2022/11/18 11:33:08;;;;;;;19.25;7.45;;;7.80;99.90;;;;;;5007365;28;20531;-78
2022/11/18 11:35:46;;;;;;;8.30;6.57;;;7.80;99.90;;;;;;5002370;28;20054;-78
2022/11/18 11:38:29;;;;;;;11.85;7.82;;;7.80;99.90;;;;;;4986795;28;20058;-78
2022/11/18 11:41:06;;;;;;;13.23;6.82;;;7.80;99.90;;;;;;5002909;28;20073;-77
2022/11/18 11:43:42;;;;;;;9.48;5.80;;;7.80;99.90;;;;;;5003158;28;20068;-78
2022/11/18 11:46:35;;;;;;;10.77;7.45;;;7.80;99.90;;;;;;5003362;28;20054;-78
2022/11/18 11:49:18;;;;;;;12.55;7.57;;;7.80;99.90;;;;;;5022955;28;20057;-78
2022/11/18 11:51:57;;;;;;;6.88;5.97;;;7.80;99.90;;;;;;5008487;28;20100;-78
2022/11/18 11:54:41;;;;;;;9.32;6.68;;;7.80;99.90;;;;;;5002188;28;20038;-79
2022/11/18 11:57:19;;;;;;;11.82;8.00;;;7.80;99.90;;;;;;4986049;28;20050;-79
2022/11/18 12:00:12;;;;;;;6.85;5.75;;;7.80;99.90;;;;;;5002386;28;20046;-79
2022/11/18 12:02:37;;;;;;;8.73;6.45;;;7.80;99.90;;;;;;4986540;28;20057;-81
2022/11/18 12:05:33;;;;;;;10.40;5.40;;;7.70;99.90;;;;;;5002303;28;20054;-80
2022/11/18 12:08:05;;;;;;;10.80;6.60;;;7.80;99.90;;;;;;4984144;28;20057;-82
2022/11/18 12:10:41;;;;;;;10.65;6.82;;;7.70;99.90;;;;;;5001487;28;20046;-81
2022/11/18 12:13:16;;;;;;;7.63;5.80;;;7.70;99.90;;;;;;5003643;28;20396;-81
2022/11/18 12:16:05;;;;;;;10.80;6.40;;;7.70;99.90;;;;;;5003517;28;20042;-81
2022/11/18 12:18:33;;;;;;;8.15;7.05;;;7.70;99.90;;;;;;5014706;28;20046;-82
2022/11/18 12:20:59;;;;;;;10.90;6.25;;;7.70;99.90;;;;;;5002258;28;20169;-80
2022/11/18 12:23:26;;;;;;;9.80;5.60;;;7.70;99.90;;;;;;5001902;28;20741;-80
2022/11/18 12:25:54;;;;;;;10.85;7.18;;;7.70;99.90;;;;;;4985644;28;20073;-81
2022/11/18 12:28:23;;;;;;;8.82;5.68;;;7.60;99.90;;;;;;5002983;28;20050;-80
2022/11/18 12:30:49;;;;;;;12.82;7.78;;;7.70;99.90;;;;;;5005644;28;20057;-80
2022/11/18 12:33:16;;;;;;;10.63;6.53;;;7.70;99.90;;;;;;5022894;28;20050;-80
2022/11/18 12:35:47;;;;;;;12.02;7.60;;;7.60;99.90;;;;;;5023054;28;20103;-80
2022/11/18 12:38:31;;;;;;;13.73;7.40;;;7.60;99.90;;;;;;5011090;28;20038;-81
2022/11/18 12:40:56;;;;;;;11.15;5.88;;;7.60;99.90;;;;;;5002727;28;20086;-81
2022/11/18 12:46:28;;;;;;;17.63;6.20;;;7.60;99.90;;;;;;5021981;28;20042;-81
2022/11/18 12:48:53;;;;;;;12.27;5.95;;;7.60;99.90;;;;;;5005087;28;20050;-79
2022/11/18 12:51:23;;;;;;;8.35;5.68;;;7.50;99.90;;;;;;5017726;28;20042;-81
2022/11/18 12:53:50;;;;;;;11.95;7.10;;;7.50;99.90;;;;;;5024293;28;20439;-80
2022/11/18 12:56:16;;;;;;;14.32;7.00;;;7.50;99.90;;;;;;5013600;28;20042;-81
2022/11/18 12:58:53;;;;;;;9.30;6.15;;;7.60;99.90;;;;;;5005243;28;20331;-80
2022/11/18 13:01:24;;;;;;;10.55;5.82;;;7.60;99.90;;;;;;5006781;28;20042;-80
2022/11/18 13:03:51;;;;;;;10.80;6.63;;;7.50;99.90;;;;;;4969563;28;20046;-80
2022/11/18 13:06:27;;;;;;;9.38;6.80;;;7.50;99.90;;;;;;4969492;28;20054;-81
2022/11/18 13:09:45;;;;;;;9.65;7.45;;;7.50;99.90;;;;;;4991904;28;20058;-79
2022/11/18 13:12:17;;;;;;;12.88;7.78;;;7.40;99.90;;;;;;4965324;28;20503;-80
2022/11/18 13:17:50;;;;;;;9.65;6.10;;;7.40;99.90;;;;;;5005971;28;20435;-81